Time;durP1;ratioP1;P1;durP2;ratioP2;P2;SDS_P1;SDS_P2;PMS_P1;PMS_P2;Temp;Humidity;BMP_temperature;BMP_pressure;BME280_temperature;BME280_humidity;BME280_pressure;Samples;Min_cycle;Max_cycle;Signal;HPM_P1;HPM_P2
2024/01/10 00:01:51;;;;;;;19.87;12.17;;;-0.90;99.90;-2.00;101896;;;;546693;258;24129;-80
2024/01/10 00:04:20;;;;;;;19.97;12.73;;;-0.90;99.90;-2.00;101896;;;;546437;259;24121;-80
2024/01/10 00:06:47;;;;;;;20.73;11.40;;;-0.90;99.90;-2.00;101899;;;;545999;259;24146;-80
2024/01/10 00:09:15;;;;;;;13.10;8.53;;;-0.90;99.90;-2.00;101903;;;;546185;259;24152;-79
2024/01/10 00:11:43;;;;;;;23.53;12.80;;;-0.90;99.90;-2.00;101900;;;;545948;259;24144;-79
2024/01/10 00:14:11;;;;;;;18.57;10.93;;;-0.90;99.90;-2.00;101898;;;;545866;259;24101;-81
2024/01/10 00:16:39;;;;;;;22.13;14.20;;;-0.90;99.90;-2.00;101907;;;;545952;259;24127;-80
2024/01/10 00:19:06;;;;;;;19.33;11.67;;;-0.90;99.90;-2.00;101889;;;;545752;259;24133;-80
2024/01/10 00:21:36;;;;;;;18.23;10.30;;;-0.90;99.90;-2.00;101899;;;;545821;259;24114;-80
2024/01/10 00:24:02;;;;;;;18.30;11.63;;;-0.90;99.90;-2.00;101888;;;;545688;259;24231;-79
2024/01/10 00:26:31;;;;;;;12.37;7.57;;;-0.90;99.90;-2.00;101898;;;;545909;259;24130;-79
2024/01/10 00:28:58;;;;;;;12.23;7.27;;;-0.90;99.90;-2.00;101895;;;;545644;259;24189;-79
2024/01/10 00:31:26;;;;;;;20.77;11.30;;;-0.80;99.90;-2.00;101900;;;;545897;259;24105;-80
2024/01/10 00:33:54;;;;;;;19.40;10.47;;;-0.80;99.90;-1.90;101906;;;;546170;259;25160;-78
2024/01/10 00:36:23;;;;;;;19.90;10.37;;;-0.80;99.90;-1.90;101903;;;;546016;259;24121;-80
2024/01/10 00:38:51;;;;;;;19.50;11.73;;;-0.70;99.90;-1.90;101902;;;;545815;259;24102;-80
2024/01/10 00:41:20;;;;;;;12.57;6.40;;;-0.70;99.90;-1.80;101911;;;;545886;259;24130;-80
2024/01/10 00:43:49;;;;;;;5.10;3.20;;;-0.60;99.90;-1.80;101916;;;;545859;259;24167;-79
2024/01/10 00:46:17;;;;;;;2.60;2.40;;;-0.70;99.90;-1.70;101906;;;;558951;254;24110;-81
2024/01/10 00:48:45;;;;;;;10.53;6.47;;;-0.60;99.90;-1.70;101903;;;;556803;254;24126;-80
2024/01/10 00:51:13;;;;;;;9.82;5.07;;;-0.50;99.90;-1.60;101909;;;;551921;254;46563;-80
2024/01/10 00:53:42;;;;;;;17.63;8.77;;;-0.50;99.90;-1.60;101897;;;;559014;254;24152;-81
2024/01/10 00:56:08;;;;;;;4.23;2.57;;;-0.50;99.90;-1.60;101901;;;;556727;254;24180;-81
2024/01/10 00:58:36;;;;;;;8.90;3.67;;;-0.40;99.90;-1.50;101894;;;;556934;254;24148;-81
2024/01/10 01:01:04;;;;;;;3.80;2.40;;;-0.40;99.90;-1.50;101879;;;;556975;252;24096;-79
2024/01/10 01:03:32;;;;;;;6.27;4.77;;;-0.30;99.90;-1.50;101873;;;;556677;254;24132;-81
2024/01/10 01:06:00;;;;;;;7.67;6.10;;;-0.30;99.90;-1.40;101878;;;;556427;254;24117;-81
2024/01/10 01:08:28;;;;;;;4.63;2.60;;;-0.30;99.90;-1.40;101897;;;;556667;254;24133;-81
2024/01/10 01:10:56;;;;;;;5.33;3.17;;;-0.20;99.90;-1.40;101898;;;;556608;254;24121;-81
2024/01/10 01:13:25;;;;;;;5.23;3.90;;;-0.20;99.90;-1.40;101905;;;;557962;253;24130;-80
2024/01/10 01:15:56;;;;;;;6.63;3.87;;;-0.20;99.90;-1.30;101892;;;;557412;253;24184;-80
2024/01/10 01:18:20;;;;;;;7.60;4.60;;;-0.20;99.90;-1.30;101888;;;;559199;254;24131;-80
2024/01/10 01:20:49;;;;;;;9.60;4.93;;;-0.20;99.90;-1.30;101886;;;;557263;254;24147;-80
2024/01/10 01:23:19;;;;;;;6.77;3.83;;;-0.10;99.90;-1.30;101894;;;;565263;253;24113;-80
2024/01/10 01:25:44;;;;;;;5.07;4.30;;;-0.10;99.90;-1.20;101896;;;;557004;254;24171;-79
2024/01/10 01:28:12;;;;;;;9.83;5.87;;;0.00;99.90;-1.20;101894;;;;556908;254;24133;-80
2024/01/10 01:30:40;;;;;;;4.83;2.87;;;0.00;99.90;-1.20;101883;;;;556720;254;24114;-81
2024/01/10 01:33:08;;;;;;;5.77;3.70;;;0.00;99.90;-1.20;101887;;;;556808;252;24121;-80
2024/01/10 01:35:36;;;;;;;11.33;5.03;;;0.00;99.90;-1.20;101876;;;;557109;254;24238;-80
2024/01/10 01:38:04;;;;;;;5.03;3.00;;;0.00;99.90;-1.10;101880;;;;557129;254;24227;-80
2024/01/10 01:40:32;;;;;;;9.37;5.63;;;0.00;99.90;-1.10;101872;;;;559320;254;24189;-81
2024/01/10 01:43:00;;;;;;;12.83;7.27;;;0.10;99.90;-1.10;101876;;;;557281;254;24150;-80
2024/01/10 01:45:28;;;;;;;3.47;3.17;;;0.10;99.90;-1.10;101884;;;;557236;254;24134;-82
2024/01/10 01:47:56;;;;;;;13.93;6.87;;;0.10;99.90;-1.10;101869;;;;556946;254;24131;-81
2024/01/10 01:50:24;;;;;;;10.57;5.93;;;0.10;99.90;-1.00;101874;;;;556768;254;24123;-81
2024/01/10 01:52:52;;;;;;;1.57;1.20;;;0.10;99.90;-1.00;101873;;;;565269;253;24114;-80
2024/01/10 01:55:20;;;;;;;8.00;4.73;;;0.10;99.90;-1.00;101859;;;;557057;254;24178;-80
2024/01/10 01:57:48;;;;;;;5.93;3.63;;;0.10;99.90;-1.00;101861;;;;557924;254;24206;-80
2024/01/10 02:00:16;;;;;;;9.93;5.47;;;0.20;99.90;-1.00;101861;;;;557736;254;24094;-82
2024/01/10 02:02:46;;;;;;;1.13;1.13;;;0.10;99.90;-1.00;101860;;;;557457;254;24106;-81
2024/01/10 02:05:15;;;;;;;13.33;6.43;;;0.20;99.90;-1.00;101863;;;;556474;254;24276;-81
2024/01/10 02:07:39;;;;;;;5.97;4.90;;;0.20;99.90;-1.00;101857;;;;564825;254;24144;-81
2024/01/10 02:10:07;;;;;;;9.17;6.03;;;0.20;99.90;-1.00;101861;;;;556948;253;24121;-80
2024/01/10 02:12:35;;;;;;;9.67;6.20;;;0.20;99.90;-1.00;101862;;;;564870;252;24167;-79
2024/01/10 02:15:03;;;;;;;11.80;7.57;;;0.20;99.90;-0.90;101869;;;;557452;254;24114;-80
2024/01/10 02:17:32;;;;;;;4.40;2.43;;;0.30;99.90;-0.90;101840;;;;559543;254;24172;-80
2024/01/10 02:20:13;;;;;;;11.67;6.37;;;0.20;99.90;-0.90;101853;;;;557416;254;24153;-79
2024/01/10 02:22:41;;;;;;;11.33;5.93;;;0.30;99.90;-0.90;101841;;;;565221;254;24126;-80
2024/01/10 02:25:13;;;;;;;10.03;6.03;;;0.30;99.90;-0.90;101840;;;;558183;253;24101;-79
2024/01/10 02:27:42;;;;;;;8.57;6.03;;;0.30;99.90;-0.90;101847;;;;565198;250;24224;-80
2024/01/10 02:30:10;;;;;;;6.40;3.40;;;0.30;99.90;-0.90;101850;;;;556951;254;24150;-80
2024/01/10 02:32:35;;;;;;;6.43;4.03;;;0.30;99.90;-0.80;101851;;;;565265;253;24136;-81
2024/01/10 02:35:02;;;;;;;6.10;2.77;;;0.30;99.90;-0.90;101839;;;;556844;254;24187;-79
2024/01/10 02:37:30;;;;;;;2.53;1.90;;;0.30;99.90;-0.80;101845;;;;557210;254;24220;-79
2024/01/10 02:39:59;;;;;;;9.30;6.17;;;0.30;99.90;-0.80;101842;;;;557388;254;24171;-80
2024/01/10 02:42:31;;;;;;;8.73;4.33;;;0.30;99.90;-0.80;101833;;;;557100;254;25169;-80
2024/01/10 02:44:56;;;;;;;13.97;5.60;;;0.30;99.90;-0.80;101830;;;;564696;253;24156;-80
2024/01/10 02:47:23;;;;;;;8.37;5.47;;;0.40;99.90;-0.80;101835;;;;557054;254;24132;-80
2024/01/10 02:49:51;;;;;;;9.80;5.60;;;0.40;99.90;-0.80;101836;;;;557037;254;25186;-79
2024/01/10 02:52:20;;;;;;;15.83;7.27;;;0.40;99.90;-0.80;101834;;;;557009;254;24160;-80
2024/01/10 02:54:49;;;;;;;3.90;3.13;;;0.40;99.90;-0.80;101830;;;;557031;254;24179;-80
2024/01/10 02:57:17;;;;;;;6.77;3.67;;;0.40;99.90;-0.80;101826;;;;556981;254;24173;-80
2024/01/10 02:59:45;;;;;;;7.50;4.77;;;0.40;99.90;-0.80;101829;;;;556855;254;24157;-79
2024/01/10 03:02:13;;;;;;;7.73;5.37;;;0.40;99.90;-0.80;101832;;;;556717;254;24119;-78
2024/01/10 03:04:45;;;;;;;8.97;4.87;;;0.40;99.90;-0.80;101835;;;;556672;254;24175;-80
2024/01/10 03:07:10;;;;;;;5.43;3.77;;;0.40;99.90;-0.80;101832;;;;559668;254;24139;-80
2024/01/10 03:09:38;;;;;;;6.10;3.77;;;0.40;99.90;-0.80;101834;;;;556348;254;24150;-80
2024/01/10 03:12:06;;;;;;;12.10;5.53;;;0.40;99.90;-0.80;101829;;;;556551;254;24121;-80
2024/01/10 03:14:34;;;;;;;8.67;4.93;;;0.40;99.90;-0.80;101822;;;;558719;254;24116;-80
2024/01/10 03:17:02;;;;;;;7.53;4.30;;;0.40;99.90;-0.80;101824;;;;556793;254;24159;-79
2024/01/10 03:19:29;;;;;;;10.67;6.17;;;0.40;99.90;-0.80;101824;;;;556609;254;24137;-81
2024/01/10 03:21:57;;;;;;;9.97;5.50;;;0.40;99.90;-0.80;101826;;;;556476;254;24116;-79
2024/01/10 03:24:27;;;;;;;9.67;5.57;;;0.40;99.90;-0.70;101826;;;;556476;253;24129;-80
2024/01/10 03:26:53;;;;;;;1.87;1.70;;;0.50;99.90;-0.70;101828;;;;556245;254;24149;-79
2024/01/10 03:29:21;;;;;;;5.43;3.77;;;0.50;99.90;-0.70;101824;;;;556773;254;24164;-80
2024/01/10 03:31:50;;;;;;;5.33;3.37;;;0.40;99.90;-0.70;101816;;;;556731;254;24096;-80
2024/01/10 03:34:18;;;;;;;12.17;6.17;;;0.40;99.90;-0.70;101829;;;;556753;254;24131;-80
2024/01/10 03:36:46;;;;;;;4.23;2.10;;;0.50;99.90;-0.70;101816;;;;557815;253;25258;-79
2024/01/10 03:39:13;;;;;;;3.40;2.47;;;0.40;99.90;-0.70;101824;;;;557663;253;24120;-80
2024/01/10 03:41:42;;;;;;;8.27;3.73;;;0.40;99.90;-0.70;101825;;;;557514;254;24201;-80
2024/01/10 03:44:10;;;;;;;9.00;5.07;;;0.40;99.90;-0.70;101821;;;;557456;254;24177;-78
2024/01/10 03:46:38;;;;;;;12.83;5.27;;;0.40;99.90;-0.70;101830;;;;557208;254;24143;-78
2024/01/10 03:49:06;;;;;;;12.03;6.40;;;0.40;99.90;-0.70;101823;;;;557086;254;24122;-78
2024/01/10 03:51:34;;;;;;;9.87;5.80;;;0.40;99.90;-0.70;101811;;;;557394;254;24123;-81
2024/01/10 03:54:03;;;;;;;9.87;6.07;;;0.40;99.90;-0.70;101821;;;;557051;254;24177;-80
2024/01/10 03:56:30;;;;;;;13.20;6.67;;;0.50;99.90;-0.70;101816;;;;557081;254;24143;-81
2024/01/10 03:58:58;;;;;;;5.13;4.43;;;0.50;99.90;-0.70;101821;;;;557065;254;24234;-80
2024/01/10 04:01:25;;;;;;;10.27;5.37;;;0.50;99.90;-0.70;101825;;;;557008;254;24349;-81
2024/01/10 04:03:53;;;;;;;4.43;2.57;;;0.50;99.90;-0.70;101828;;;;557138;254;24116;-78
2024/01/10 04:06:21;;;;;;;12.63;6.33;;;0.50;99.90;-0.70;101821;;;;556661;254;24189;-81
2024/01/10 04:08:49;;;;;;;8.70;5.57;;;0.50;99.90;-0.70;101812;;;;556706;254;24199;-80
2024/01/10 04:11:17;;;;;;;10.97;6.60;;;0.50;99.90;-0.70;101823;;;;556727;254;26340;-79
2024/01/10 04:13:46;;;;;;;7.53;4.73;;;0.50;99.90;-0.70;101812;;;;556492;254;24195;-79
2024/01/10 04:16:14;;;;;;;10.20;6.03;;;0.50;99.90;-0.70;101816;;;;564750;253;24194;-80
2024/01/10 04:18:41;;;;;;;7.70;4.67;;;0.50;99.90;-0.70;101817;;;;556416;254;24157;-79
2024/01/10 04:21:09;;;;;;;8.03;5.20;;;0.50;99.90;-0.70;101814;;;;556417;254;24172;-79
2024/01/10 04:23:37;;;;;;;7.73;5.30;;;0.40;99.90;-0.70;101809;;;;556465;254;24154;-80
2024/01/10 04:26:05;;;;;;;7.87;4.97;;;0.40;99.90;-0.70;101821;;;;556469;250;24117;-79
2024/01/10 04:28:33;;;;;;;4.07;2.73;;;0.40;99.90;-0.70;101806;;;;556586;254;24101;-80
2024/01/10 04:31:01;;;;;;;11.83;5.00;;;0.40;99.90;-0.70;101810;;;;556539;254;24116;-80
2024/01/10 04:33:29;;;;;;;2.40;2.27;;;0.40;99.90;-0.70;101804;;;;556424;254;24144;-80
2024/01/10 04:35:57;;;;;;;6.13;4.20;;;0.40;99.90;-0.80;101807;;;;556563;254;24105;-81
2024/01/10 04:38:26;;;;;;;8.33;2.30;;;0.40;99.90;-0.80;101801;;;;556957;254;24123;-81
2024/01/10 04:40:53;;;;;;;9.80;5.93;;;0.40;99.90;-0.70;101801;;;;556545;254;24139;-80
2024/01/10 04:43:21;;;;;;;4.77;3.53;;;0.40;99.90;-0.70;101799;;;;556370;254;24145;-81
2024/01/10 04:45:52;;;;;;;6.93;4.60;;;0.40;99.90;-0.70;101801;;;;556586;254;24156;-81
2024/01/10 04:48:17;;;;;;;5.17;3.17;;;0.40;99.90;-0.70;101791;;;;557265;253;24186;-81
2024/01/10 04:50:45;;;;;;;7.23;4.33;;;0.40;99.90;-0.70;101800;;;;557360;253;24121;-81
2024/01/10 04:53:13;;;;;;;12.27;7.17;;;0.40;99.90;-0.80;101796;;;;557261;254;24160;-80
2024/01/10 04:55:41;;;;;;;11.63;4.70;;;0.40;99.90;-0.70;101795;;;;556995;254;24134;-82
2024/01/10 04:58:09;;;;;;;1.67;1.47;;;0.40;99.90;-0.70;101802;;;;557069;254;24179;-80
2024/01/10 05:00:37;;;;;;;7.70;3.47;;;0.40;99.90;-0.70;101800;;;;556935;254;24122;-81
2024/01/10 05:03:08;;;;;;;10.73;6.00;;;0.40;99.90;-0.70;101812;;;;556870;254;24174;-80
2024/01/10 05:05:33;;;;;;;1.37;1.17;;;0.40;99.90;-0.70;101803;;;;564819;253;24116;-80
2024/01/10 05:08:01;;;;;;;10.07;4.90;;;0.40;99.90;-0.70;101794;;;;557055;254;24167;-81
2024/01/10 05:10:28;;;;;;;11.03;6.60;;;0.40;99.90;-0.80;101797;;;;561315;251;24141;-79
2024/01/10 05:12:56;;;;;;;15.23;6.80;;;0.40;99.90;-0.70;101803;;;;561349;248;24128;-81
2024/01/10 05:15:24;;;;;;;6.40;3.70;;;0.40;99.90;-0.70;101789;;;;561485;247;24134;-81
2024/01/10 05:17:52;;;;;;;12.43;6.40;;;0.40;99.90;-0.70;101805;;;;556436;254;24174;-81
2024/01/10 05:20:20;;;;;;;13.17;7.63;;;0.40;99.90;-0.70;101804;;;;561293;248;24131;-81
2024/01/10 05:22:48;;;;;;;5.83;2.33;;;0.40;99.90;-0.70;101798;;;;561309;246;24124;-81
2024/01/10 05:25:18;;;;;;;6.30;5.00;;;0.40;99.90;-0.70;101797;;;;556334;254;24127;-80
2024/01/10 05:27:44;;;;;;;12.33;6.00;;;0.40;99.90;-0.70;101793;;;;557299;256;24137;-80
2024/01/10 05:30:13;;;;;;;5.23;2.43;;;0.50;99.90;-0.70;101789;;;;547244;259;24140;-79
2024/01/10 05:32:40;;;;;;;7.20;4.23;;;0.50;99.90;-0.70;101794;;;;545949;258;24154;-78
2024/01/10 05:35:10;;;;;;;27.27;13.43;;;0.50;99.90;-0.70;101788;;;;544890;258;35410;-78
2024/01/10 05:37:36;;;;;;;13.23;7.97;;;0.50;99.90;-0.70;101783;;;;548016;258;25178;-77
2024/01/10 05:40:08;;;;;;;11.90;6.00;;;0.50;99.90;-0.70;101773;;;;566025;253;24180;-78
2024/01/10 05:42:32;;;;;;;5.47;3.37;;;0.50;99.90;-0.70;101779;;;;556120;254;24139;-80
2024/01/10 05:45:04;;;;;;;8.53;4.87;;;0.50;99.90;-0.70;101777;;;;556448;254;24160;-79
2024/01/10 05:47:29;;;;;;;8.10;4.83;;;0.50;99.90;-0.70;101777;;;;555978;254;24170;-78
2024/01/10 05:49:57;;;;;;;4.77;3.90;;;0.50;99.90;-0.70;101781;;;;556274;254;24107;-79
2024/01/10 05:52:25;;;;;;;11.23;5.57;;;0.50;99.90;-0.70;101792;;;;556497;254;24116;-80
2024/01/10 05:54:56;;;;;;;6.93;3.93;;;0.50;99.90;-0.70;101788;;;;556285;254;24176;-79
2024/01/10 05:57:21;;;;;;;14.47;7.17;;;0.50;99.90;-0.70;101783;;;;556770;254;24120;-80
2024/01/10 05:59:48;;;;;;;12.47;7.23;;;0.40;99.90;-0.70;101770;;;;558225;253;24125;-80
2024/01/10 06:02:16;;;;;;;10.23;5.73;;;0.50;99.90;-0.70;101775;;;;557616;253;24155;-81
2024/01/10 06:04:44;;;;;;;4.27;2.27;;;0.50;99.90;-0.70;101769;;;;557302;254;24221;-78
2024/01/10 06:07:12;;;;;;;7.27;5.57;;;0.50;99.90;-0.70;101769;;;;557483;254;24194;-79
2024/01/10 06:09:40;;;;;;;8.80;6.40;;;0.50;99.90;-0.70;101753;;;;557244;254;24103;-79
2024/01/10 06:12:09;;;;;;;14.23;7.37;;;0.50;99.90;-0.60;101756;;;;556897;254;24150;-78
2024/01/10 06:14:40;;;;;;;7.33;3.83;;;0.50;99.90;-0.70;101762;;;;557044;254;24185;-78
2024/01/10 06:17:08;;;;;;;3.40;3.03;;;0.60;99.90;-0.70;101758;;;;558846;253;24171;-80
2024/01/10 06:19:36;;;;;;;5.43;3.97;;;0.50;99.90;-0.70;101758;;;;556670;254;24110;-78
2024/01/10 06:22:00;;;;;;;7.57;5.00;;;0.50;99.90;-0.70;101756;;;;556389;254;24140;-78
2024/01/10 06:24:28;;;;;;;10.97;7.40;;;0.50;99.90;-0.70;101757;;;;556681;254;24109;-77
2024/01/10 06:26:57;;;;;;;6.07;5.30;;;0.50;99.90;-0.70;101752;;;;556866;254;24124;-80
2024/01/10 06:29:29;;;;;;;1.80;1.57;;;0.40;99.90;-0.70;101760;;;;556893;254;24140;-79
2024/01/10 06:31:56;;;;;;;18.80;6.60;;;0.40;99.90;-0.70;101763;;;;556735;254;24152;-79
2024/01/10 06:34:21;;;;;;;10.43;6.33;;;0.40;99.90;-0.70;101761;;;;558911;254;24233;-78
2024/01/10 06:36:49;;;;;;;7.30;5.07;;;0.40;99.90;-0.70;101766;;;;556553;254;24114;-78
2024/01/10 06:39:19;;;;;;;17.67;7.27;;;0.40;99.90;-0.70;101768;;;;556918;254;24097;-81
2024/01/10 06:41:45;;;;;;;11.37;6.30;;;0.40;99.90;-0.70;101785;;;;556904;254;24148;-80
2024/01/10 06:44:13;;;;;;;11.53;6.13;;;0.40;99.90;-0.70;101784;;;;556579;254;24154;-80
2024/01/10 06:46:41;;;;;;;14.93;7.77;;;0.40;99.90;-0.70;101784;;;;556714;254;24132;-80
2024/01/10 06:49:09;;;;;;;16.40;7.87;;;0.40;99.90;-0.70;101786;;;;556588;254;24117;-81
2024/01/10 06:51:37;;;;;;;12.73;7.40;;;0.40;99.90;-0.70;101790;;;;556829;254;24159;-81
2024/01/10 06:54:05;;;;;;;11.43;7.60;;;0.50;99.90;-0.70;101786;;;;556631;254;24145;-80
2024/01/10 06:56:36;;;;;;;7.60;5.73;;;0.50;99.90;-0.70;101783;;;;556673;254;25203;-80
2024/01/10 06:59:04;;;;;;;16.03;8.40;;;0.50;99.90;-0.70;101774;;;;556273;254;24130;-80
2024/01/10 07:01:31;;;;;;;14.90;7.90;;;0.50;99.90;-0.70;101786;;;;556335;254;24162;-78
2024/01/10 07:03:56;;;;;;;14.90;7.67;;;0.50;99.90;-0.60;101788;;;;556618;254;24156;-80
2024/01/10 07:06:28;;;;;;;16.20;7.67;;;0.50;99.90;-0.60;101781;;;;556484;254;25163;-81
2024/01/10 07:08:55;;;;;;;13.00;6.63;;;0.60;99.90;-0.60;101780;;;;556810;254;24128;-79
2024/01/10 07:11:20;;;;;;;10.03;6.43;;;0.60;99.90;-0.60;101786;;;;557929;253;24109;-78
2024/01/10 07:13:48;;;;;;;7.10;5.67;;;0.60;99.90;-0.60;101802;;;;557397;253;24141;-80
2024/01/10 07:16:16;;;;;;;17.00;7.53;;;0.60;99.90;-0.60;101798;;;;557210;254;24170;-76
2024/01/10 07:18:47;;;;;;;32.05;15.55;;;0.50;99.90;-0.70;101792;;;;552184;254;35530;-80
2024/01/10 07:21:12;;;;;;;9.07;5.00;;;0.50;99.90;-0.60;101797;;;;556846;254;24116;-80
2024/01/10 07:23:40;;;;;;;14.47;9.00;;;0.50;99.90;-0.70;101796;;;;556810;254;24151;-79
2024/01/10 07:26:08;;;;;;;14.30;7.97;;;0.50;99.90;-0.70;101798;;;;556914;249;24163;-80
2024/01/10 07:28:37;;;;;;;7.70;5.53;;;0.50;99.90;-0.60;101787;;;;557226;254;24158;-79
2024/01/10 07:31:03;;;;;;;10.27;6.77;;;0.60;99.90;-0.60;101778;;;;556894;254;24242;-78
2024/01/10 07:33:32;;;;;;;25.90;9.00;;;0.60;99.90;-0.60;101787;;;;556975;254;25166;-79
2024/01/10 07:36:01;;;;;;;13.47;6.93;;;0.70;99.90;-0.50;101788;;;;556916;254;24147;-77
2024/01/10 07:38:29;;;;;;;12.40;7.07;;;0.60;99.90;-0.50;101788;;;;556677;254;24124;-78
2024/01/10 07:40:59;;;;;;;5.93;4.10;;;0.70;99.90;-0.50;101796;;;;556558;254;24170;-77
2024/01/10 07:43:28;;;;;;;4.20;2.50;;;0.70;99.90;-0.60;101796;;;;556889;254;24135;-78
2024/01/10 07:45:52;;;;;;;7.20;4.83;;;0.70;99.90;-0.50;101802;;;;557067;254;24139;-80
2024/01/10 07:48:20;;;;;;;4.00;2.63;;;0.70;99.90;-0.60;101794;;;;556874;254;24174;-78
2024/01/10 07:50:49;;;;;;;7.70;5.47;;;0.70;99.90;-0.50;101789;;;;556891;254;24211;-78
2024/01/10 07:53:17;;;;;;;8.80;5.37;;;0.60;99.90;-0.60;101783;;;;556622;254;24132;-77
2024/01/10 07:55:48;;;;;;;9.13;4.53;;;0.70;99.90;-0.50;101786;;;;556736;254;24106;-76
2024/01/10 07:58:15;;;;;;;13.10;6.67;;;0.70;99.90;-0.50;101793;;;;564689;254;24125;-78
2024/01/10 08:00:41;;;;;;;22.05;11.88;;;0.80;99.90;-0.50;101796;;;;551578;254;35610;-78
2024/01/10 08:03:10;;;;;;;17.23;9.07;;;0.80;99.90;-0.50;101800;;;;542462;257;24151;-80
2024/01/10 08:05:39;;;;;;;12.90;7.07;;;0.80;99.90;-0.40;101796;;;;556672;254;24153;-78
2024/01/10 08:08:07;;;;;;;7.50;6.47;;;0.80;99.90;-0.40;101797;;;;556346;254;24166;-78
2024/01/10 08:10:35;;;;;;;10.73;6.37;;;0.90;99.90;-0.40;101797;;;;556283;254;24106;-77
2024/01/10 08:13:02;;;;;;;14.90;4.00;;;0.90;99.90;-0.40;101795;;;;556491;254;24102;-77
2024/01/10 08:15:35;;;;;;;8.67;4.73;;;0.90;99.90;-0.40;101796;;;;556211;254;24129;-77
2024/01/10 08:17:58;;;;;;;4.97;2.80;;;0.80;99.90;-0.40;101804;;;;555980;254;24125;-77
2024/01/10 08:20:27;;;;;;;18.80;6.87;;;0.80;99.90;-0.40;101801;;;;556308;254;24165;-76
2024/01/10 08:22:54;;;;;;;20.52;13.18;;;0.80;99.90;-0.40;101794;;;;552535;253;35518;-77
2024/01/10 08:25:22;;;;;;;13.93;8.87;;;1.00;99.90;-0.30;101806;;;;557379;253;24175;-77
2024/01/10 08:27:52;;;;;;;12.07;7.10;;;1.00;99.90;-0.20;101798;;;;556974;254;24238;-78
2024/01/10 08:30:18;;;;;;;8.73;6.17;;;1.10;99.90;-0.30;101802;;;;556888;254;24143;-76
2024/01/10 08:32:47;;;;;;;6.77;5.53;;;1.10;99.90;-0.20;101792;;;;556772;254;24134;-77
2024/01/10 08:35:17;;;;;;;13.70;6.40;;;1.10;99.90;-0.20;101779;;;;556688;254;24186;-77
2024/01/10 08:37:46;;;;;;;9.50;6.17;;;1.10;99.90;-0.20;101798;;;;556935;254;24171;-77
2024/01/10 08:40:16;;;;;;;13.37;6.20;;;1.10;99.90;-0.20;101783;;;;554662;254;24143;-77
2024/01/10 08:42:44;;;;;;;14.77;6.40;;;1.10;99.90;-0.10;101791;;;;564871;253;24133;-78
2024/01/10 08:45:13;;;;;;;10.90;6.80;;;1.20;99.90;-0.10;101790;;;;556771;254;24194;-79
2024/01/10 08:47:42;;;;;;;11.90;7.20;;;1.30;99.90;0.00;101794;;;;556238;254;24157;-76
2024/01/10 08:50:08;;;;;;;13.53;8.33;;;1.20;99.90;0.00;101795;;;;555996;254;24118;-78
2024/01/10 08:52:34;;;;;;;8.90;5.57;;;1.30;99.90;0.00;101785;;;;556544;253;24148;-78
2024/01/10 08:55:02;;;;;;;7.37;5.80;;;1.30;99.90;0.00;101789;;;;556615;254;24160;-77
2024/01/10 08:57:30;;;;;;;11.90;7.60;;;1.30;99.90;0.00;101781;;;;556527;254;24140;-78
2024/01/10 08:59:58;;;;;;;8.17;7.13;;;1.30;99.90;0.10;101779;;;;556472;254;24433;-77
2024/01/10 09:02:27;;;;;;;13.63;6.83;;;1.30;99.90;0.10;101780;;;;556286;254;24132;-77
2024/01/10 09:04:54;;;;;;;6.87;4.77;;;1.40;99.90;0.10;101789;;;;556140;254;24132;-77
2024/01/10 09:07:22;;;;;;;9.63;4.67;;;1.40;99.90;0.10;101783;;;;556240;254;24141;-76
2024/01/10 09:09:51;;;;;;;12.83;7.77;;;1.40;99.90;0.20;101789;;;;556618;254;24155;-76
2024/01/10 09:12:19;;;;;;;10.37;7.00;;;1.50;99.90;0.30;101794;;;;556698;254;24128;-76
2024/01/10 09:14:47;;;;;;;11.27;6.73;;;1.50;99.90;0.20;101781;;;;558840;254;24154;-76
2024/01/10 09:17:15;;;;;;;9.23;5.63;;;1.50;99.90;0.20;101787;;;;556251;254;24109;-76
2024/01/10 09:19:43;;;;;;;10.60;6.70;;;1.50;99.90;0.20;101782;;;;556360;254;24113;-75
2024/01/10 09:22:11;;;;;;;4.80;3.63;;;1.50;99.90;0.10;101788;;;;556241;254;24122;-75
2024/01/10 09:24:42;;;;;;;3.70;2.93;;;1.40;99.90;0.10;101797;;;;556350;254;24140;-75
2024/01/10 09:27:07;;;;;;;7.10;4.83;;;1.40;99.90;0.00;101796;;;;556291;254;24184;-75
2024/01/10 09:29:35;;;;;;;8.40;7.37;;;1.30;99.90;0.00;101796;;;;556352;254;24133;-75
2024/01/10 09:32:03;;;;;;;6.23;5.17;;;1.30;99.90;0.00;101797;;;;556389;254;24118;-75
2024/01/10 09:34:32;;;;;;;14.33;8.13;;;1.30;99.90;0.10;101796;;;;557548;253;24158;-76
2024/01/10 09:36:59;;;;;;;17.70;6.77;;;1.30;99.90;0.10;101796;;;;557484;253;24124;-76
2024/01/10 09:39:27;;;;;;;3.27;2.97;;;1.30;99.90;0.10;101793;;;;557347;254;24171;-79
2024/01/10 09:41:57;;;;;;;13.87;7.30;;;1.30;99.90;0.10;101792;;;;560361;254;24124;-76
2024/01/10 09:44:28;;;;;;;14.67;7.00;;;1.30;99.90;0.10;101797;;;;557784;254;24100;-77
2024/01/10 09:46:52;;;;;;;5.57;3.70;;;1.30;99.90;0.10;101781;;;;557830;254;24132;-77
2024/01/10 09:49:24;;;;;;;3.37;3.00;;;1.40;99.90;0.20;101785;;;;553761;253;24116;-81
2024/01/10 09:51:48;;;;;;;15.13;7.13;;;1.40;99.90;0.10;101784;;;;557324;254;24164;-80
2024/01/10 09:54:16;;;;;;;7.23;6.03;;;1.30;99.90;0.10;101792;;;;557475;253;24112;-78
2024/01/10 09:56:44;;;;;;;9.73;6.80;;;1.30;99.90;0.10;101785;;;;557180;254;24188;-78
2024/01/10 09:59:12;;;;;;;21.98;15.13;;;1.30;99.90;0.10;101778;;;;552587;254;35537;-79
2024/01/10 10:01:39;;;;;;;15.20;10.17;;;1.30;99.90;0.30;101775;;;;557233;254;24105;-77
2024/01/10 10:04:07;;;;;;;15.80;10.60;;;1.50;99.90;0.40;101779;;;;557415;254;24160;-80
2024/01/10 10:06:35;;;;;;;8.67;7.07;;;1.60;99.90;0.40;101781;;;;557119;254;24180;-79
2024/01/10 10:09:04;;;;;;;11.87;4.70;;;1.70;99.90;0.50;101773;;;;556954;254;24109;-78
2024/01/10 10:11:31;;;;;;;9.67;4.30;;;1.70;99.90;0.50;101768;;;;556864;254;26489;-77
2024/01/10 10:13:59;;;;;;;10.83;7.67;;;1.70;99.90;0.40;101766;;;;556963;254;24175;-79
2024/01/10 10:16:35;;;;;;;8.77;6.07;;;1.70;99.90;0.40;101758;;;;555417;254;24186;-78
2024/01/10 10:18:57;;;;;;;8.40;6.13;;;1.70;99.90;0.40;101752;;;;556632;254;24123;-77
2024/01/10 10:21:23;;;;;;;10.43;6.47;;;1.60;99.90;0.50;101742;;;;556442;254;24146;-77
2024/01/10 10:24:00;;;;;;;10.63;7.60;;;1.60;99.90;0.40;101741;;;;556441;254;24203;-78
2024/01/10 10:26:29;;;;;;;11.53;5.27;;;1.60;99.90;0.50;101728;;;;556132;254;24157;-76
2024/01/10 10:29:06;;;;;;;5.90;4.87;;;1.60;99.90;0.50;101737;;;;556664;254;24130;-78
2024/01/10 10:31:33;;;;;;;12.33;7.23;;;1.70;99.90;0.60;101739;;;;556792;254;24120;-78
2024/01/10 10:33:58;;;;;;;9.90;7.13;;;1.70;99.90;0.60;101741;;;;556467;254;24181;-78
2024/01/10 10:36:26;;;;;;;15.17;8.17;;;1.80;99.90;0.70;101732;;;;556639;254;25197;-75
2024/01/10 10:38:54;;;;;;;15.03;8.80;;;1.80;99.90;0.80;101756;;;;556656;254;24156;-77
2024/01/10 10:41:25;;;;;;;18.12;11.35;;;1.90;99.90;0.80;101752;;;;551902;254;35501;-76
2024/01/10 10:43:50;;;;;;;13.03;9.27;;;1.90;99.90;0.70;101736;;;;556152;254;24179;-77
2024/01/10 10:46:21;;;;;;;8.43;6.93;;;1.90;99.90;0.70;101741;;;;555718;257;24124;-76
2024/01/10 10:48:47;;;;;;;11.40;6.90;;;1.90;99.90;0.80;101743;;;;557030;253;24127;-76
2024/01/10 10:51:23;;;;;;;8.90;6.83;;;1.90;99.90;0.80;101736;;;;565407;253;24139;-78
2024/01/10 10:53:54;;;;;;;10.03;5.50;;;2.10;99.90;0.90;101745;;;;558899;254;24188;-76
2024/01/10 10:56:22;;;;;;;6.77;4.23;;;2.10;99.90;0.90;101732;;;;565185;253;24173;-76
2024/01/10 10:58:51;;;;;;;10.40;7.97;;;2.00;99.90;0.90;101743;;;;556546;254;25237;-78
2024/01/10 11:01:15;;;;;;;10.47;6.23;;;2.00;99.90;0.80;101739;;;;556627;254;24143;-79
2024/01/10 11:03:47;;;;;;;8.30;6.93;;;2.00;99.90;0.80;101741;;;;556733;254;24121;-77
2024/01/10 11:06:12;;;;;;;4.73;4.10;;;1.90;99.90;0.80;101741;;;;556413;254;24157;-79
2024/01/10 11:08:45;;;;;;;12.87;7.20;;;1.90;99.90;0.80;101741;;;;556622;254;24183;-76
2024/01/10 11:11:34;;;;;;;11.03;6.67;;;1.90;99.90;0.80;101734;;;;556509;254;24113;-77
2024/01/10 11:14:23;;;;;;;7.60;5.40;;;1.90;99.90;0.80;101734;;;;559095;254;24193;-77
2024/01/10 11:17:25;;;;;;;6.50;5.20;;;1.90;99.90;0.80;101750;;;;556855;254;24232;-76
2024/01/10 11:19:59;;;;;;;6.13;4.77;;;1.90;99.90;0.70;101746;;;;564902;252;24135;-76